sensor_id;sensor_type;location;lat;lon;timestamp;temperature;humidity
73121;DHT22;61307;49.628;-1.624;2024-02-28T00:01:02;21.80;34.60
73121;DHT22;61307;49.628;-1.624;2024-02-28T00:03:31;21.80;34.70
73121;DHT22;61307;49.628;-1.624;2024-02-28T00:05:59;21.80;34.70
73121;DHT22;61307;49.628;-1.624;2024-02-28T00:08:26;21.80;34.70
73121;DHT22;61307;49.628;-1.624;2024-02-28T00:10:53;21.80;34.70
73121;DHT22;61307;49.628;-1.624;2024-02-28T00:13:20;21.80;34.80
73121;DHT22;61307;49.628;-1.624;2024-02-28T00:15:48;21.80;35.50
73121;DHT22;61307;49.628;-1.624;2024-02-28T00:18:15;21.80;34.90
73121;DHT22;61307;49.628;-1.624;2024-02-28T00:20:44;21.80;35.00
73121;DHT22;61307;49.628;-1.624;2024-02-28T00:23:11;21.80;35.00
73121;DHT22;61307;49.628;-1.624;2024-02-28T00:25:37;21.80;35.00
73121;DHT22;61307;49.628;-1.624;2024-02-28T00:28:04;21.80;35.00
73121;DHT22;61307;49.628;-1.624;2024-02-28T00:30:31;21.80;35.10
73121;DHT22;61307;49.628;-1.624;2024-02-28T00:32:59;21.80;35.10
73121;DHT22;61307;49.628;-1.624;2024-02-28T00:35:26;21.80;35.20
73121;DHT22;61307;49.628;-1.624;2024-02-28T00:37:54;21.80;35.20
73121;DHT22;61307;49.628;-1.624;2024-02-28T00:40:21;21.80;35.20
73121;DHT22;61307;49.628;-1.624;2024-02-28T00:42:48;21.80;35.20
73121;DHT22;61307;49.628;-1.624;2024-02-28T00:45:15;21.80;35.30
73121;DHT22;61307;49.628;-1.624;2024-02-28T00:47:42;21.80;35.20
73121;DHT22;61307;49.628;-1.624;2024-02-28T00:50:10;21.80;35.40
73121;DHT22;61307;49.628;-1.624;2024-02-28T00:52:37;21.80;35.40
73121;DHT22;61307;49.628;-1.624;2024-02-28T00:55:06;21.80;35.40
73121;DHT22;61307;49.628;-1.624;2024-02-28T00:57:33;21.80;35.40
73121;DHT22;61307;49.628;-1.624;2024-02-28T01:00:00;21.80;36.10
73121;DHT22;61307;49.628;-1.624;2024-02-28T01:02:27;21.80;35.50
73121;DHT22;61307;49.628;-1.624;2024-02-28T01:04:54;21.80;35.50
73121;DHT22;61307;49.628;-1.624;2024-02-28T01:07:21;21.80;35.50
73121;DHT22;61307;49.628;-1.624;2024-02-28T01:09:48;21.80;36.30
73121;DHT22;61307;49.628;-1.624;2024-02-28T01:12:16;21.80;35.60
73121;DHT22;61307;49.628;-1.624;2024-02-28T01:14:43;21.80;35.70
73121;DHT22;61307;49.628;-1.624;2024-02-28T01:17:10;21.80;35.60
73121;DHT22;61307;49.628;-1.624;2024-02-28T01:19:37;21.80;35.70
73121;DHT22;61307;49.628;-1.624;2024-02-28T01:22:04;21.80;35.80
73121;DHT22;61307;49.628;-1.624;2024-02-28T01:24:31;21.80;35.80
73121;DHT22;61307;49.628;-1.624;2024-02-28T01:26:59;21.80;36.60
73121;DHT22;61307;49.628;-1.624;2024-02-28T01:29:27;21.80;35.80
73121;DHT22;61307;49.628;-1.624;2024-02-28T01:31:55;21.80;35.90
73121;DHT22;61307;49.628;-1.624;2024-02-28T01:34:22;21.80;35.90
73121;DHT22;61307;49.628;-1.624;2024-02-28T01:36:49;21.80;36.00
73121;DHT22;61307;49.628;-1.624;2024-02-28T01:39:16;21.80;36.10
73121;DHT22;61307;49.628;-1.624;2024-02-28T01:41:51;21.70;35.90
73121;DHT22;61307;49.628;-1.624;2024-02-28T01:44:18;21.80;36.00
73121;DHT22;61307;49.628;-1.624;2024-02-28T01:46:47;21.80;36.10
73121;DHT22;61307;49.628;-1.624;2024-02-28T01:49:14;21.80;36.10
73121;DHT22;61307;49.628;-1.624;2024-02-28T01:51:42;21.80;36.10
73121;DHT22;61307;49.628;-1.624;2024-02-28T01:54:11;21.80;36.20
73121;DHT22;61307;49.628;-1.624;2024-02-28T01:56:39;21.80;36.20
73121;DHT22;61307;49.628;-1.624;2024-02-28T01:59:07;21.80;36.30
73121;DHT22;61307;49.628;-1.624;2024-02-28T02:01:36;21.80;36.30
73121;DHT22;61307;49.628;-1.624;2024-02-28T02:04:05;21.80;36.30
73121;DHT22;61307;49.628;-1.624;2024-02-28T02:06:33;21.80;36.30
73121;DHT22;61307;49.628;-1.624;2024-02-28T02:09:03;21.80;36.40
73121;DHT22;61307;49.628;-1.624;2024-02-28T02:11:30;21.80;36.30
73121;DHT22;61307;49.628;-1.624;2024-02-28T02:13:57;21.80;36.50
73121;DHT22;61307;49.628;-1.624;2024-02-28T02:16:24;21.80;36.50
73121;DHT22;61307;49.628;-1.624;2024-02-28T02:18:52;21.80;36.60
73121;DHT22;61307;49.628;-1.624;2024-02-28T02:21:23;21.80;36.60
73121;DHT22;61307;49.628;-1.624;2024-02-28T02:23:51;21.80;36.60
73121;DHT22;61307;49.628;-1.624;2024-02-28T02:26:18;21.80;36.60
73121;DHT22;61307;49.628;-1.624;2024-02-28T02:28:45;21.80;36.60
73121;DHT22;61307;49.628;-1.624;2024-02-28T02:31:13;21.80;36.60
73121;DHT22;61307;49.628;-1.624;2024-02-28T02:33:40;21.80;36.70
73121;DHT22;61307;49.628;-1.624;2024-02-28T02:36:07;21.80;36.60
73121;DHT22;61307;49.628;-1.624;2024-02-28T02:38:34;21.80;36.70
73121;DHT22;61307;49.628;-1.624;2024-02-28T02:41:03;21.80;36.80
73121;DHT22;61307;49.628;-1.624;2024-02-28T02:43:29;21.80;36.80
73121;DHT22;61307;49.628;-1.624;2024-02-28T02:45:56;21.80;36.80
73121;DHT22;61307;49.628;-1.624;2024-02-28T02:48:23;21.80;36.80
73121;DHT22;61307;49.628;-1.624;2024-02-28T02:50:50;21.80;36.90
73121;DHT22;61307;49.628;-1.624;2024-02-28T02:53:17;21.80;36.90
73121;DHT22;61307;49.628;-1.624;2024-02-28T02:55:44;21.80;37.00
73121;DHT22;61307;49.628;-1.624;2024-02-28T02:58:12;21.80;36.90
73121;DHT22;61307;49.628;-1.624;2024-02-28T03:00:39;21.80;36.90
73121;DHT22;61307;49.628;-1.624;2024-02-28T03:03:07;21.80;37.00
73121;DHT22;61307;49.628;-1.624;2024-02-28T03:05:34;21.80;37.00
73121;DHT22;61307;49.628;-1.624;2024-02-28T03:08:01;21.80;37.10
73121;DHT22;61307;49.628;-1.624;2024-02-28T03:10:28;21.80;37.10
73121;DHT22;61307;49.628;-1.624;2024-02-28T03:12:55;21.80;37.10
73121;DHT22;61307;49.628;-1.624;2024-02-28T03:15:23;21.80;37.10
73121;DHT22;61307;49.628;-1.624;2024-02-28T03:17:50;21.80;37.20
73121;DHT22;61307;49.628;-1.624;2024-02-28T03:20:17;21.80;37.20
73121;DHT22;61307;49.628;-1.624;2024-02-28T03:22:44;21.80;37.20
73121;DHT22;61307;49.628;-1.624;2024-02-28T03:25:11;21.80;37.20
73121;DHT22;61307;49.628;-1.624;2024-02-28T03:27:38;21.80;37.20
73121;DHT22;61307;49.628;-1.624;2024-02-28T03:30:06;21.70;37.20
73121;DHT22;61307;49.628;-1.624;2024-02-28T03:32:34;21.80;37.30
73121;DHT22;61307;49.628;-1.624;2024-02-28T03:35:01;21.80;37.30
73121;DHT22;61307;49.628;-1.624;2024-02-28T03:37:29;21.80;37.30
73121;DHT22;61307;49.628;-1.624;2024-02-28T03:39:57;21.80;37.40
73121;DHT22;61307;49.628;-1.624;2024-02-28T03:42:24;21.80;37.40
73121;DHT22;61307;49.628;-1.624;2024-02-28T03:44:50;21.80;37.40
73121;DHT22;61307;49.628;-1.624;2024-02-28T03:47:17;21.80;37.40
73121;DHT22;61307;49.628;-1.624;2024-02-28T03:49:45;21.80;37.50
73121;DHT22;61307;49.628;-1.624;2024-02-28T03:52:12;21.80;37.50
73121;DHT22;61307;49.628;-1.624;2024-02-28T03:54:42;21.80;37.50
73121;DHT22;61307;49.628;-1.624;2024-02-28T03:57:09;21.70;37.50
73121;DHT22;61307;49.628;-1.624;2024-02-28T03:59:36;21.70;37.50
73121;DHT22;61307;49.628;-1.624;2024-02-28T04:02:04;21.80;37.60
73121;DHT22;61307;49.628;-1.624;2024-02-28T04:04:31;21.80;37.70
73121;DHT22;61307;49.628;-1.624;2024-02-28T04:06:59;21.80;37.80
73121;DHT22;61307;49.628;-1.624;2024-02-28T04:09:26;21.80;37.80
73121;DHT22;61307;49.628;-1.624;2024-02-28T04:11:54;21.70;37.80
73121;DHT22;61307;49.628;-1.624;2024-02-28T04:14:21;21.80;37.90
73121;DHT22;61307;49.628;-1.624;2024-02-28T04:16:48;21.80;37.90
73121;DHT22;61307;49.628;-1.624;2024-02-28T04:19:15;21.80;37.90
73121;DHT22;61307;49.628;-1.624;2024-02-28T04:21:42;21.80;37.90
73121;DHT22;61307;49.628;-1.624;2024-02-28T04:24:11;21.80;37.90
73121;DHT22;61307;49.628;-1.624;2024-02-28T04:26:37;21.80;37.90
73121;DHT22;61307;49.628;-1.624;2024-02-28T04:29:05;21.70;37.90
73121;DHT22;61307;49.628;-1.624;2024-02-28T04:31:33;21.80;37.90
73121;DHT22;61307;49.628;-1.624;2024-02-28T04:34:00;21.80;37.90
73121;DHT22;61307;49.628;-1.624;2024-02-28T04:36:27;21.80;37.90
73121;DHT22;61307;49.628;-1.624;2024-02-28T04:38:54;21.80;37.90
73121;DHT22;61307;49.628;-1.624;2024-02-28T04:41:22;21.80;37.90
73121;DHT22;61307;49.628;-1.624;2024-02-28T04:43:49;21.80;37.90
73121;DHT22;61307;49.628;-1.624;2024-02-28T04:46:16;21.80;37.90
73121;DHT22;61307;49.628;-1.624;2024-02-28T04:48:43;21.80;37.90
73121;DHT22;61307;49.628;-1.624;2024-02-28T04:51:10;21.80;37.90
73121;DHT22;61307;49.628;-1.624;2024-02-28T04:53:39;21.80;37.90
73121;DHT22;61307;49.628;-1.624;2024-02-28T04:56:06;21.80;37.90
73121;DHT22;61307;49.628;-1.624;2024-02-28T04:58:35;21.80;37.90
73121;DHT22;61307;49.628;-1.624;2024-02-28T05:01:02;21.80;37.90
73121;DHT22;61307;49.628;-1.624;2024-02-28T05:03:29;21.80;37.90
73121;DHT22;61307;49.628;-1.624;2024-02-28T05:05:56;21.80;37.90
73121;DHT22;61307;49.628;-1.624;2024-02-28T05:08:24;21.80;37.90
73121;DHT22;61307;49.628;-1.624;2024-02-28T05:10:52;21.80;37.90
73121;DHT22;61307;49.628;-1.624;2024-02-28T05:13:19;21.80;37.90
73121;DHT22;61307;49.628;-1.624;2024-02-28T05:15:49;21.80;37.90
73121;DHT22;61307;49.628;-1.624;2024-02-28T05:18:16;21.80;37.90
73121;DHT22;61307;49.628;-1.624;2024-02-28T05:20:43;21.80;37.90
73121;DHT22;61307;49.628;-1.624;2024-02-28T05:23:10;21.80;38.00
73121;DHT22;61307;49.628;-1.624;2024-02-28T05:25:38;21.80;38.10
73121;DHT22;61307;49.628;-1.624;2024-02-28T05:28:05;21.80;38.00
73121;DHT22;61307;49.628;-1.624;2024-02-28T05:30:32;21.80;38.10
73121;DHT22;61307;49.628;-1.624;2024-02-28T05:33:00;21.80;38.20
73121;DHT22;61307;49.628;-1.624;2024-02-28T05:35:27;21.70;38.10
73121;DHT22;61307;49.628;-1.624;2024-02-28T05:37:54;21.80;39.00
73121;DHT22;61307;49.628;-1.624;2024-02-28T05:40:21;21.80;38.20
73121;DHT22;61307;49.628;-1.624;2024-02-28T05:42:48;21.80;38.30
73121;DHT22;61307;49.628;-1.624;2024-02-28T05:45:15;21.80;38.30
73121;DHT22;61307;49.628;-1.624;2024-02-28T05:47:42;21.80;38.30
73121;DHT22;61307;49.628;-1.624;2024-02-28T05:50:10;21.70;38.30
73121;DHT22;61307;49.628;-1.624;2024-02-28T05:52:41;21.80;38.40
73121;DHT22;61307;49.628;-1.624;2024-02-28T05:55:08;21.80;38.40
73121;DHT22;61307;49.628;-1.624;2024-02-28T05:57:35;21.80;38.40
73121;DHT22;61307;49.628;-1.624;2024-02-28T06:00:02;21.70;38.40
73121;DHT22;61307;49.628;-1.624;2024-02-28T06:02:35;21.80;38.50
73121;DHT22;61307;49.628;-1.624;2024-02-28T06:05:03;21.80;38.50
73121;DHT22;61307;49.628;-1.624;2024-02-28T06:07:31;21.80;38.50
73121;DHT22;61307;49.628;-1.624;2024-02-28T06:09:58;21.80;38.50
73121;DHT22;61307;49.628;-1.624;2024-02-28T06:12:25;21.80;38.50
73121;DHT22;61307;49.628;-1.624;2024-02-28T06:14:52;21.80;38.50
73121;DHT22;61307;49.628;-1.624;2024-02-28T06:17:20;21.80;38.50
73121;DHT22;61307;49.628;-1.624;2024-02-28T06:19:47;21.80;38.50
73121;DHT22;61307;49.628;-1.624;2024-02-28T06:22:14;21.80;38.60
73121;DHT22;61307;49.628;-1.624;2024-02-28T06:24:42;21.70;38.50
73121;DHT22;61307;49.628;-1.624;2024-02-28T06:27:10;21.70;38.50
73121;DHT22;61307;49.628;-1.624;2024-02-28T06:29:38;21.80;38.60
73121;DHT22;61307;49.628;-1.624;2024-02-28T06:32:06;21.80;38.70
73121;DHT22;61307;49.628;-1.624;2024-02-28T06:34:33;21.80;38.60
73121;DHT22;61307;49.628;-1.624;2024-02-28T06:36:59;21.80;38.70
73121;DHT22;61307;49.628;-1.624;2024-02-28T06:39:26;21.80;38.70
73121;DHT22;61307;49.628;-1.624;2024-02-28T06:41:55;21.70;38.60
73121;DHT22;61307;49.628;-1.624;2024-02-28T06:44:21;21.80;38.70
73121;DHT22;61307;49.628;-1.624;2024-02-28T06:46:48;21.80;38.70
73121;DHT22;61307;49.628;-1.624;2024-02-28T06:49:15;21.80;38.70
73121;DHT22;61307;49.628;-1.624;2024-02-28T06:51:43;21.80;38.80
73121;DHT22;61307;49.628;-1.624;2024-02-28T06:54:10;21.80;38.70
73121;DHT22;61307;49.628;-1.624;2024-02-28T06:56:37;21.80;38.70
73121;DHT22;61307;49.628;-1.624;2024-02-28T06:59:05;21.80;38.80
73121;DHT22;61307;49.628;-1.624;2024-02-28T07:01:32;21.80;38.80
73121;DHT22;61307;49.628;-1.624;2024-02-28T07:03:59;21.80;38.80
73121;DHT22;61307;49.628;-1.624;2024-02-28T07:06:26;21.80;38.80
73121;DHT22;61307;49.628;-1.624;2024-02-28T07:08:53;21.80;38.70
73121;DHT22;61307;49.628;-1.624;2024-02-28T07:11:20;21.80;38.80
73121;DHT22;61307;49.628;-1.624;2024-02-28T07:13:47;21.80;38.80
73121;DHT22;61307;49.628;-1.624;2024-02-28T07:16:15;21.80;38.80
73121;DHT22;61307;49.628;-1.624;2024-02-28T07:18:42;21.80;38.80
73121;DHT22;61307;49.628;-1.624;2024-02-28T07:21:09;21.80;39.60
73121;DHT22;61307;49.628;-1.624;2024-02-28T07:23:39;21.80;38.90
73121;DHT22;61307;49.628;-1.624;2024-02-28T07:26:06;21.80;38.90
73121;DHT22;61307;49.628;-1.624;2024-02-28T07:28:33;21.80;38.90
73121;DHT22;61307;49.628;-1.624;2024-02-28T07:31:00;21.80;38.90
73121;DHT22;61307;49.628;-1.624;2024-02-28T07:33:28;21.80;38.90
73121;DHT22;61307;49.628;-1.624;2024-02-28T07:35:55;21.80;38.90
73121;DHT22;61307;49.628;-1.624;2024-02-28T07:38:27;21.80;39.00
73121;DHT22;61307;49.628;-1.624;2024-02-28T07:40:54;21.70;38.90
73121;DHT22;61307;49.628;-1.624;2024-02-28T07:43:21;21.80;39.00
73121;DHT22;61307;49.628;-1.624;2024-02-28T07:45:48;21.70;39.00
73121;DHT22;61307;49.628;-1.624;2024-02-28T07:48:14;21.70;38.90
73121;DHT22;61307;49.628;-1.624;2024-02-28T07:50:44;21.80;39.10
73121;DHT22;61307;49.628;-1.624;2024-02-28T07:53:11;21.80;39.00
73121;DHT22;61307;49.628;-1.624;2024-02-28T07:55:39;21.80;39.00
73121;DHT22;61307;49.628;-1.624;2024-02-28T07:58:06;21.70;39.00
73121;DHT22;61307;49.628;-1.624;2024-02-28T08:00:33;21.70;39.00
73121;DHT22;61307;49.628;-1.624;2024-02-28T08:02:59;21.70;39.00
73121;DHT22;61307;49.628;-1.624;2024-02-28T08:05:26;21.70;39.00
73121;DHT22;61307;49.628;-1.624;2024-02-28T08:07:55;21.70;39.00
73121;DHT22;61307;49.628;-1.624;2024-02-28T08:10:22;21.80;39.20
73121;DHT22;61307;49.628;-1.624;2024-02-28T08:12:49;21.80;39.30
73121;DHT22;61307;49.628;-1.624;2024-02-28T08:15:16;21.90;39.30
73121;DHT22;61307;49.628;-1.624;2024-02-28T08:17:43;21.90;39.30
73121;DHT22;61307;49.628;-1.624;2024-02-28T08:20:10;21.90;39.30
73121;DHT22;61307;49.628;-1.624;2024-02-28T08:22:37;22.00;39.40
73121;DHT22;61307;49.628;-1.624;2024-02-28T08:25:06;21.90;39.30
73121;DHT22;61307;49.628;-1.624;2024-02-28T08:27:36;21.90;39.30
73121;DHT22;61307;49.628;-1.624;2024-02-28T08:30:05;22.00;39.30
73121;DHT22;61307;49.628;-1.624;2024-02-28T08:32:32;22.00;39.30
73121;DHT22;61307;49.628;-1.624;2024-02-28T08:35:00;22.00;39.30
73121;DHT22;61307;49.628;-1.624;2024-02-28T08:37:27;22.00;39.30
73121;DHT22;61307;49.628;-1.624;2024-02-28T08:39:54;22.00;39.30
73121;DHT22;61307;49.628;-1.624;2024-02-28T08:42:27;22.10;39.40
73121;DHT22;61307;49.628;-1.624;2024-02-28T08:44:59;22.10;39.40
73121;DHT22;61307;49.628;-1.624;2024-02-28T08:47:27;22.10;39.30
73121;DHT22;61307;49.628;-1.624;2024-02-28T08:49:57;22.10;39.30
73121;DHT22;61307;49.628;-1.624;2024-02-28T08:52:34;22.10;39.30
73121;DHT22;61307;49.628;-1.624;2024-02-28T08:55:15;22.20;39.30
73121;DHT22;61307;49.628;-1.624;2024-02-28T08:57:49;22.10;39.20
73121;DHT22;61307;49.628;-1.624;2024-02-28T09:00:19;22.10;39.20
73121;DHT22;61307;49.628;-1.624;2024-02-28T09:02:50;22.20;39.30
73121;DHT22;61307;49.628;-1.624;2024-02-28T09:05:20;22.20;39.20
73121;DHT22;61307;49.628;-1.624;2024-02-28T09:07:49;22.20;39.20
73121;DHT22;61307;49.628;-1.624;2024-02-28T09:10:20;22.20;39.20
73121;DHT22;61307;49.628;-1.624;2024-02-28T09:12:52;22.30;39.80
73121;DHT22;61307;49.628;-1.624;2024-02-28T09:15:20;22.30;39.30
73121;DHT22;61307;49.628;-1.624;2024-02-28T09:17:46;22.30;39.00
73121;DHT22;61307;49.628;-1.624;2024-02-28T09:20:14;22.30;39.00
73121;DHT22;61307;49.628;-1.624;2024-02-28T09:22:41;22.30;39.00
73121;DHT22;61307;49.628;-1.624;2024-02-28T09:25:08;22.30;39.20
73121;DHT22;61307;49.628;-1.624;2024-02-28T09:27:35;22.40;39.40
73121;DHT22;61307;49.628;-1.624;2024-02-28T09:30:05;22.30;39.50
73121;DHT22;61307;49.628;-1.624;2024-02-28T09:32:32;22.30;39.50
73121;DHT22;61307;49.628;-1.624;2024-02-28T09:34:58;22.30;39.70
73121;DHT22;61307;49.628;-1.624;2024-02-28T09:37:25;22.30;39.80
73121;DHT22;61307;49.628;-1.624;2024-02-28T09:39:54;22.30;39.80
73121;DHT22;61307;49.628;-1.624;2024-02-28T09:42:21;22.30;39.80
73121;DHT22;61307;49.628;-1.624;2024-02-28T09:44:48;22.30;39.80
73121;DHT22;61307;49.628;-1.624;2024-02-28T09:47:18;22.30;39.80
73121;DHT22;61307;49.628;-1.624;2024-02-28T09:49:50;22.30;39.80
73121;DHT22;61307;49.628;-1.624;2024-02-28T09:52:18;22.30;39.80
73121;DHT22;61307;49.628;-1.624;2024-02-28T09:54:45;22.30;39.80
73121;DHT22;61307;49.628;-1.624;2024-02-28T09:57:12;22.30;39.80
73121;DHT22;61307;49.628;-1.624;2024-02-28T09:59:40;22.40;39.90
73121;DHT22;61307;49.628;-1.624;2024-02-28T10:02:09;22.40;39.90
73121;DHT22;61307;49.628;-1.624;2024-02-28T10:04:39;22.40;39.90
73121;DHT22;61307;49.628;-1.624;2024-02-28T10:07:12;22.40;39.90
73121;DHT22;61307;49.628;-1.624;2024-02-28T10:09:40;22.40;39.90
73121;DHT22;61307;49.628;-1.624;2024-02-28T10:12:07;22.40;39.90
73121;DHT22;61307;49.628;-1.624;2024-02-28T10:14:34;22.40;39.90
73121;DHT22;61307;49.628;-1.624;2024-02-28T10:17:02;22.40;39.90
73121;DHT22;61307;49.628;-1.624;2024-02-28T10:19:31;22.40;39.90
73121;DHT22;61307;49.628;-1.624;2024-02-28T10:22:00;22.40;40.00
73121;DHT22;61307;49.628;-1.624;2024-02-28T10:24:28;22.40;40.00
73121;DHT22;61307;49.628;-1.624;2024-02-28T10:26:55;22.40;40.00
73121;DHT22;61307;49.628;-1.624;2024-02-28T10:29:22;22.40;39.90
73121;DHT22;61307;49.628;-1.624;2024-02-28T10:31:49;22.40;39.90
73121;DHT22;61307;49.628;-1.624;2024-02-28T10:34:17;22.50;40.00
73121;DHT22;61307;49.628;-1.624;2024-02-28T10:36:44;22.50;40.00
73121;DHT22;61307;49.628;-1.624;2024-02-28T10:39:14;22.50;39.90
73121;DHT22;61307;49.628;-1.624;2024-02-28T10:41:41;22.50;39.90
73121;DHT22;61307;49.628;-1.624;2024-02-28T10:44:09;22.50;39.90
73121;DHT22;61307;49.628;-1.624;2024-02-28T10:46:38;22.50;39.90
73121;DHT22;61307;49.628;-1.624;2024-02-28T10:49:05;22.50;39.90
73121;DHT22;61307;49.628;-1.624;2024-02-28T10:51:35;22.50;39.90
73121;DHT22;61307;49.628;-1.624;2024-02-28T10:54:09;22.50;39.90
73121;DHT22;61307;49.628;-1.624;2024-02-28T10:56:38;22.50;39.90
73121;DHT22;61307;49.628;-1.624;2024-02-28T10:59:07;22.60;39.90
73121;DHT22;61307;49.628;-1.624;2024-02-28T11:01:35;22.50;39.80
73121;DHT22;61307;49.628;-1.624;2024-02-28T11:04:03;22.50;39.80
73121;DHT22;61307;49.628;-1.624;2024-02-28T11:06:31;22.50;39.70
73121;DHT22;61307;49.628;-1.624;2024-02-28T11:08:59;22.50;39.80
73121;DHT22;61307;49.628;-1.624;2024-02-28T11:11:30;22.50;39.80
73121;DHT22;61307;49.628;-1.624;2024-02-28T11:13:59;22.50;39.90
73121;DHT22;61307;49.628;-1.624;2024-02-28T11:16:28;22.40;39.80
73121;DHT22;61307;49.628;-1.624;2024-02-28T11:18:55;22.40;39.90
73121;DHT22;61307;49.628;-1.624;2024-02-28T11:21:25;22.40;40.00
73121;DHT22;61307;49.628;-1.624;2024-02-28T11:23:56;22.40;40.00
73121;DHT22;61307;49.628;-1.624;2024-02-28T11:26:23;22.40;40.00
73121;DHT22;61307;49.628;-1.624;2024-02-28T11:28:51;22.30;40.00
73121;DHT22;61307;49.628;-1.624;2024-02-28T11:31:19;22.30;40.00
73121;DHT22;61307;49.628;-1.624;2024-02-28T11:33:46;22.30;40.00
73121;DHT22;61307;49.628;-1.624;2024-02-28T11:36:13;22.30;40.10
73121;DHT22;61307;49.628;-1.624;2024-02-28T11:38:41;22.30;40.00
73121;DHT22;61307;49.628;-1.624;2024-02-28T11:41:08;22.30;40.00
73121;DHT22;61307;49.628;-1.624;2024-02-28T11:43:35;22.30;40.00
73121;DHT22;61307;49.628;-1.624;2024-02-28T11:46:08;22.30;40.00
73121;DHT22;61307;49.628;-1.624;2024-02-28T11:48:36;22.30;40.10
73121;DHT22;61307;49.628;-1.624;2024-02-28T11:51:03;22.30;40.10
73121;DHT22;61307;49.628;-1.624;2024-02-28T11:53:30;22.30;40.10
73121;DHT22;61307;49.628;-1.624;2024-02-28T11:55:57;22.30;40.10
73121;DHT22;61307;49.628;-1.624;2024-02-28T11:58:25;22.30;40.10
73121;DHT22;61307;49.628;-1.624;2024-02-28T12:00:52;22.30;40.10
73121;DHT22;61307;49.628;-1.624;2024-02-28T12:03:23;22.30;40.10
73121;DHT22;61307;49.628;-1.624;2024-02-28T12:05:52;22.30;40.10
73121;DHT22;61307;49.628;-1.624;2024-02-28T12:08:19;22.30;40.10
73121;DHT22;61307;49.628;-1.624;2024-02-28T12:10:47;22.30;40.10
73121;DHT22;61307;49.628;-1.624;2024-02-28T12:13:16;22.30;40.10
73121;DHT22;61307;49.628;-1.624;2024-02-28T12:15:44;22.30;40.20
73121;DHT22;61307;49.628;-1.624;2024-02-28T12:18:11;22.30;40.10
73121;DHT22;61307;49.628;-1.624;2024-02-28T12:20:38;22.30;40.20
73121;DHT22;61307;49.628;-1.624;2024-02-28T12:23:06;22.30;40.20
73121;DHT22;61307;49.628;-1.624;2024-02-28T12:25:34;22.30;40.20
73121;DHT22;61307;49.628;-1.624;2024-02-28T12:28:01;22.30;40.30
73121;DHT22;61307;49.628;-1.624;2024-02-28T12:30:31;22.30;40.30
73121;DHT22;61307;49.628;-1.624;2024-02-28T12:32:58;22.30;40.30
73121;DHT22;61307;49.628;-1.624;2024-02-28T12:35:25;22.30;40.40
73121;DHT22;61307;49.628;-1.624;2024-02-28T12:37:52;22.30;40.40
73121;DHT22;61307;49.628;-1.624;2024-02-28T12:40:21;22.40;40.40
73121;DHT22;61307;49.628;-1.624;2024-02-28T12:42:47;22.40;40.40
73121;DHT22;61307;49.628;-1.624;2024-02-28T12:45:14;22.40;40.50
73121;DHT22;61307;49.628;-1.624;2024-02-28T12:47:41;22.40;40.50
73121;DHT22;61307;49.628;-1.624;2024-02-28T12:50:08;22.40;40.50
73121;DHT22;61307;49.628;-1.624;2024-02-28T12:52:36;22.40;40.60
73121;DHT22;61307;49.628;-1.624;2024-02-28T12:55:04;22.50;40.70
73121;DHT22;61307;49.628;-1.624;2024-02-28T12:57:32;22.40;40.70
73121;DHT22;61307;49.628;-1.624;2024-02-28T12:59:59;22.50;40.80
73121;DHT22;61307;49.628;-1.624;2024-02-28T13:02:26;22.50;40.80
73121;DHT22;61307;49.628;-1.624;2024-02-28T13:04:54;22.50;40.80
73121;DHT22;61307;49.628;-1.624;2024-02-28T13:07:20;22.40;40.90
73121;DHT22;61307;49.628;-1.624;2024-02-28T13:09:48;22.50;41.20
73121;DHT22;61307;49.628;-1.624;2024-02-28T13:12:18;22.40;41.20
73121;DHT22;61307;49.628;-1.624;2024-02-28T13:14:57;22.40;41.40
73121;DHT22;61307;49.628;-1.624;2024-02-28T13:17:26;22.40;41.50
73121;DHT22;61307;49.628;-1.624;2024-02-28T13:19:58;22.50;41.60
73121;DHT22;61307;49.628;-1.624;2024-02-28T13:22:26;22.50;41.70
73121;DHT22;61307;49.628;-1.624;2024-02-28T13:24:59;22.40;41.70
73121;DHT22;61307;49.628;-1.624;2024-02-28T13:27:28;22.50;41.80
73121;DHT22;61307;49.628;-1.624;2024-02-28T13:29:58;22.40;41.70
73121;DHT22;61307;49.628;-1.624;2024-02-28T13:32:26;22.50;41.80
73121;DHT22;61307;49.628;-1.624;2024-02-28T13:34:53;22.40;41.70
73121;DHT22;61307;49.628;-1.624;2024-02-28T13:37:20;22.50;41.80
73121;DHT22;61307;49.628;-1.624;2024-02-28T13:39:48;22.50;41.80
73121;DHT22;61307;49.628;-1.624;2024-02-28T13:42:17;22.40;41.80
73121;DHT22;61307;49.628;-1.624;2024-02-28T13:44:46;22.50;41.90
73121;DHT22;61307;49.628;-1.624;2024-02-28T13:47:15;22.50;42.10
73121;DHT22;61307;49.628;-1.624;2024-02-28T13:49:43;22.50;42.20
73121;DHT22;61307;49.628;-1.624;2024-02-28T13:52:10;22.40;42.20
73121;DHT22;61307;49.628;-1.624;2024-02-28T13:54:37;22.50;42.40
73121;DHT22;61307;49.628;-1.624;2024-02-28T13:57:04;22.40;42.40
73121;DHT22;61307;49.628;-1.624;2024-02-28T13:59:35;22.50;42.40
73121;DHT22;61307;49.628;-1.624;2024-02-28T14:02:02;22.50;42.50
73121;DHT22;61307;49.628;-1.624;2024-02-28T14:04:31;22.50;42.50
73121;DHT22;61307;49.628;-1.624;2024-02-28T14:06:58;22.50;42.50
73121;DHT22;61307;49.628;-1.624;2024-02-28T14:09:24;22.50;42.50
73121;DHT22;61307;49.628;-1.624;2024-02-28T14:11:51;22.50;42.60
73121;DHT22;61307;49.628;-1.624;2024-02-28T14:14:18;22.50;42.60
73121;DHT22;61307;49.628;-1.624;2024-02-28T14:16:49;22.60;42.70
73121;DHT22;61307;49.628;-1.624;2024-02-28T14:19:16;22.60;42.70
73121;DHT22;61307;49.628;-1.624;2024-02-28T14:21:45;22.60;42.70
73121;DHT22;61307;49.628;-1.624;2024-02-28T14:24:17;22.60;42.70
73121;DHT22;61307;49.628;-1.624;2024-02-28T14:26:48;22.60;42.70
73121;DHT22;61307;49.628;-1.624;2024-02-28T14:29:17;22.50;42.50
73121;DHT22;61307;49.628;-1.624;2024-02-28T14:31:46;22.50;42.50
73121;DHT22;61307;49.628;-1.624;2024-02-28T14:34:17;22.50;42.50
73121;DHT22;61307;49.628;-1.624;2024-02-28T14:36:46;22.60;42.50
73121;DHT22;61307;49.628;-1.624;2024-02-28T14:39:13;22.50;42.50
73121;DHT22;61307;49.628;-1.624;2024-02-28T14:41:42;22.60;42.70
73121;DHT22;61307;49.628;-1.624;2024-02-28T14:44:10;22.50;42.70
73121;DHT22;61307;49.628;-1.624;2024-02-28T14:46:37;22.50;42.70
73121;DHT22;61307;49.628;-1.624;2024-02-28T14:49:04;22.50;42.80
73121;DHT22;61307;49.628;-1.624;2024-02-28T14:51:31;22.50;42.80
73121;DHT22;61307;49.628;-1.624;2024-02-28T14:54:00;22.60;42.90
73121;DHT22;61307;49.628;-1.624;2024-02-28T14:56:28;22.50;42.80
73121;DHT22;61307;49.628;-1.624;2024-02-28T14:58:55;22.60;42.90
73121;DHT22;61307;49.628;-1.624;2024-02-28T15:01:22;22.60;42.90
73121;DHT22;61307;49.628;-1.624;2024-02-28T15:03:50;22.60;42.80
73121;DHT22;61307;49.628;-1.624;2024-02-28T15:06:17;22.60;42.80
73121;DHT22;61307;49.628;-1.624;2024-02-28T15:08:44;22.60;42.80
73121;DHT22;61307;49.628;-1.624;2024-02-28T15:11:12;22.70;42.80
73121;DHT22;61307;49.628;-1.624;2024-02-28T15:13:39;22.70;42.80
73121;DHT22;61307;49.628;-1.624;2024-02-28T15:16:06;22.70;42.70
73121;DHT22;61307;49.628;-1.624;2024-02-28T15:18:33;22.70;42.70